Time;durP1;ratioP1;P1;durP2;ratioP2;P2;SDS_P1;SDS_P2;PMS_P1;PMS_P2;Temp;Humidity;BMP_temperature;BMP_pressure;BME280_temperature;BME280_humidity;BME280_pressure;Samples;Min_cycle;Max_cycle;Signal;HPM_P1;HPM_P2
2023/04/11 00:00:53;;;;;;;14.27;2.00;;;37.70;19.20;;;;;;5070309;28;20055;-61
2023/04/11 00:03:21;;;;;;;15.48;2.25;;;37.60;19.30;;;;;;5080870;28;20016;-62
2023/04/11 00:05:47;;;;;;;11.05;2.20;;;37.60;19.40;;;;;;5074869;28;20132;-63
2023/04/11 00:08:14;;;;;;;14.35;2.13;;;37.60;20.10;;;;;;5076805;28;20104;-62
2023/04/11 00:10:41;;;;;;;11.13;2.28;;;37.60;20.20;;;;;;5065786;28;20115;-63
2023/04/11 00:13:09;;;;;;;11.73;1.70;;;37.50;20.30;;;;;;5073906;28;20025;-61
2023/04/11 00:15:38;;;;;;;13.55;2.75;;;37.60;20.20;;;;;;5072738;28;20082;-64
2023/04/11 00:18:05;;;;;;;8.98;2.58;;;37.50;19.90;;;;;;5076217;28;20039;-62
2023/04/11 00:20:32;;;;;;;11.90;2.20;;;37.40;19.10;;;;;;5075622;28;20029;-64
2023/04/11 00:22:58;;;;;;;6.65;2.15;;;37.20;18.70;;;;;;5070933;28;20024;-63
2023/04/11 00:25:25;;;;;;;9.02;1.80;;;37.20;18.80;;;;;;5074680;28;20020;-63
2023/04/11 00:27:52;;;;;;;10.65;1.98;;;37.10;19.00;;;;;;5076091;28;20035;-63
2023/04/11 00:30:19;;;;;;;20.95;3.42;;;37.00;18.90;;;;;;5080246;28;20500;-63
2023/04/11 00:32:46;;;;;;;10.57;2.17;;;36.90;19.60;;;;;;5076359;28;20045;-64
2023/04/11 00:35:12;;;;;;;5.53;2.30;;;36.80;19.60;;;;;;5068992;28;20028;-63
2023/04/11 00:37:42;;;;;;;10.10;2.10;;;36.80;20.00;;;;;;5069859;28;20071;-62
2023/04/11 00:40:11;;;;;;;15.20;2.50;;;36.80;20.00;;;;;;5069109;28;20428;-60
2023/04/11 00:42:38;;;;;;;16.10;2.33;;;36.70;20.20;;;;;;5068313;28;20082;-61
2023/04/11 00:45:05;;;;;;;13.77;2.13;;;36.70;20.40;;;;;;5069688;28;20445;-61
2023/04/11 00:47:33;;;;;;;18.38;5.25;;;36.60;20.30;;;;;;5068906;28;20035;-62
2023/04/11 00:50:00;;;;;;;15.95;2.22;;;36.60;20.10;;;;;;5068872;28;20046;-62
2023/04/11 00:52:26;;;;;;;13.15;1.98;;;36.50;19.80;;;;;;5068396;28;20090;-64
2023/04/11 00:54:53;;;;;;;16.10;2.47;;;36.40;20.20;;;;;;5068647;28;20085;-60
2023/04/11 00:57:20;;;;;;;12.68;2.17;;;36.20;20.60;;;;;;5070872;28;20517;-63
2023/04/11 00:59:47;;;;;;;25.88;11.00;;;36.20;21.00;;;;;;5069320;28;20142;-63
2023/04/11 01:02:13;;;;;;;31.17;10.48;;;36.10;20.50;;;;;;5076932;28;20068;-63
2023/04/11 01:04:40;;;;;;;31.80;10.32;;;36.00;20.90;;;;;;5074211;28;20072;-66
2023/04/11 01:07:07;;;;;;;27.25;2.35;;;35.90;21.20;;;;;;5070550;28;20408;-63
2023/04/11 01:09:35;;;;;;;14.05;2.20;;;35.90;21.00;;;;;;5073413;28;20037;-63
2023/04/11 01:12:04;;;;;;;12.18;2.67;;;35.80;21.10;;;;;;5063959;28;20038;-62
2023/04/11 01:14:30;;;;;;;10.68;1.85;;;35.80;21.30;;;;;;5067783;28;20134;-63
2023/04/11 01:17:00;;;;;;;16.80;1.90;;;35.70;21.70;;;;;;5068504;28;20083;-62
2023/04/11 01:19:27;;;;;;;11.45;2.30;;;35.60;21.10;;;;;;5068414;28;20043;-63
2023/04/11 01:21:56;;;;;;;14.73;2.65;;;35.50;22.30;;;;;;5069067;28;20059;-63
2023/04/11 01:24:23;;;;;;;12.38;2.45;;;35.30;23.10;;;;;;5068314;28;20041;-64
2023/04/11 01:26:50;;;;;;;10.63;2.05;;;35.10;23.20;;;;;;5068911;28;20073;-62
2023/04/11 01:29:17;;;;;;;14.95;2.30;;;34.90;23.80;;;;;;5068794;28;20399;-62
2023/04/11 01:31:43;;;;;;;11.43;2.15;;;34.80;23.90;;;;;;5070614;28;20050;-61
2023/04/11 01:34:13;;;;;;;15.43;2.78;;;34.60;24.40;;;;;;5069073;28;20136;-62
2023/04/11 01:36:41;;;;;;;15.00;2.30;;;34.50;24.90;;;;;;5067072;28;20084;-63
2023/04/11 01:39:08;;;;;;;9.00;2.30;;;34.30;25.30;;;;;;5068228;28;20543;-62
2023/04/11 01:41:35;;;;;;;6.72;1.90;;;34.10;25.50;;;;;;5068313;28;20047;-61
2023/04/11 01:44:03;;;;;;;18.73;2.78;;;34.00;25.10;;;;;;5067409;28;20045;-66
2023/04/11 01:46:29;;;;;;;11.50;3.20;;;33.80;25.30;;;;;;5066824;28;20063;-62
2023/04/11 01:48:57;;;;;;;20.30;3.33;;;33.70;25.80;;;;;;5072142;28;20679;-61
2023/04/11 01:51:23;;;;;;;19.42;3.35;;;33.40;25.10;;;;;;5066729;28;20479;-61
2023/04/11 01:53:49;;;;;;;26.27;3.50;;;33.30;25.40;;;;;;5066097;28;20049;-60
2023/04/11 01:56:16;;;;;;;18.90;4.13;;;33.20;26.40;;;;;;5068214;28;20448;-59
2023/04/11 01:58:42;;;;;;;22.45;3.90;;;33.10;25.60;;;;;;5072523;28;20128;-63
2023/04/11 02:01:12;;;;;;;17.02;3.47;;;32.90;25.20;;;;;;5070045;28;20106;-64
2023/04/11 02:03:38;;;;;;;17.27;3.70;;;32.70;25.80;;;;;;5078227;28;20045;-65
2023/04/11 02:06:05;;;;;;;23.17;4.25;;;32.40;25.30;;;;;;5075724;28;20093;-66
2023/04/11 02:10:45;;;;;;;20.93;3.73;;;32.10;25.00;;;;;;5086851;28;20483;-64
2023/04/11 02:13:12;;;;;;;24.45;4.15;;;32.00;26.90;;;;;;5085757;28;20867;-63
2023/04/11 02:15:38;;;;;;;15.13;3.72;;;31.80;26.70;;;;;;5088420;28;20131;-66
2023/04/11 02:18:05;;;;;;;19.95;3.40;;;31.60;26.60;;;;;;5089697;28;20147;-63
2023/04/11 02:20:32;;;;;;;23.40;4.30;;;31.50;26.70;;;;;;5083207;28;20078;-65
2023/04/11 02:22:59;;;;;;;25.83;4.40;;;31.40;26.80;;;;;;5083169;28;20543;-65
2023/04/11 02:25:26;;;;;;;24.83;4.10;;;31.20;27.00;;;;;;5086394;28;20062;-64
2023/04/11 02:27:52;;;;;;;19.13;4.07;;;31.10;26.80;;;;;;5086460;28;20153;-65
2023/04/11 02:30:18;;;;;;;23.85;5.28;;;30.90;27.30;;;;;;5087083;28;20077;-65
2023/04/11 02:32:45;;;;;;;21.92;5.70;;;30.90;27.60;;;;;;5089493;28;20071;-66
2023/04/11 02:35:11;;;;;;;22.00;5.55;;;30.70;27.70;;;;;;5085377;28;20441;-65
2023/04/11 02:37:38;;;;;;;24.48;6.30;;;30.60;28.40;;;;;;5089991;28;20059;-65
2023/04/11 02:40:05;;;;;;;29.83;6.20;;;30.50;28.40;;;;;;5083282;28;20540;-66
2023/04/11 02:42:31;;;;;;;27.90;6.50;;;30.30;28.50;;;;;;5087561;28;20074;-64
2023/04/11 02:44:59;;;;;;;23.25;6.13;;;30.30;28.40;;;;;;5089519;28;20061;-65
2023/04/11 02:47:25;;;;;;;22.95;6.22;;;30.20;29.40;;;;;;5091753;28;20196;-64
2023/04/11 02:49:52;;;;;;;23.05;6.20;;;30.00;29.30;;;;;;5084631;28;20075;-63
2023/04/11 02:52:19;;;;;;;26.92;5.93;;;29.80;29.30;;;;;;5087173;28;21864;-64
2023/04/11 02:54:45;;;;;;;25.95;5.85;;;29.70;29.10;;;;;;5083207;28;20054;-64
2023/04/11 02:57:12;;;;;;;37.72;5.55;;;29.70;29.70;;;;;;5091418;28;20145;-63
2023/04/11 02:59:38;;;;;;;33.05;6.38;;;29.60;29.50;;;;;;5084807;28;20119;-65
2023/04/11 03:02:05;;;;;;;32.92;6.30;;;29.40;29.70;;;;;;5083961;28;20091;-64
2023/04/11 03:04:31;;;;;;;27.02;5.95;;;29.40;30.70;;;;;;5082784;28;20429;-65
2023/04/11 03:06:57;;;;;;;29.17;5.63;;;29.30;30.30;;;;;;5083772;28;20073;-65
2023/04/11 03:09:24;;;;;;;31.95;5.60;;;29.10;30.20;;;;;;5083406;28;20562;-64
2023/04/11 03:11:51;;;;;;;34.10;5.80;;;29.10;30.40;;;;;;5081914;28;20439;-63
2023/04/11 03:14:17;;;;;;;44.25;6.63;;;29.00;30.70;;;;;;5080248;28;20602;-63
2023/04/11 03:16:44;;;;;;;31.60;6.60;;;28.90;31.40;;;;;;5082850;28;20074;-65
2023/04/11 03:19:10;;;;;;;39.85;7.03;;;28.80;31.80;;;;;;5083379;28;20549;-65
2023/04/11 03:21:36;;;;;;;38.40;6.18;;;28.80;32.10;;;;;;5072301;28;20161;-66
2023/04/11 03:24:04;;;;;;;35.83;6.78;;;28.70;32.00;;;;;;5068384;28;20112;-63
2023/04/11 03:26:31;;;;;;;33.47;6.40;;;28.60;32.20;;;;;;5074983;28;20070;-63
2023/04/11 03:28:57;;;;;;;37.70;6.95;;;28.60;32.60;;;;;;5069893;28;20488;-66
2023/04/11 03:31:24;;;;;;;49.83;7.25;;;28.50;32.60;;;;;;5069850;28;20210;-64
2023/04/11 03:33:51;;;;;;;44.08;8.40;;;28.40;32.70;;;;;;5069783;28;20064;-65
2023/04/11 03:36:17;;;;;;;49.50;8.43;;;28.40;31.40;;;;;;5072925;28;20533;-64
2023/04/11 03:38:43;;;;;;;56.30;8.23;;;28.50;31.10;;;;;;5076482;28;20112;-67
2023/04/11 03:41:10;;;;;;;49.25;7.95;;;28.60;30.30;;;;;;5072920;28;20074;-65
2023/04/11 03:43:36;;;;;;;50.47;7.82;;;28.60;30.70;;;;;;5070907;28;20068;-65
2023/04/11 03:46:03;;;;;;;56.65;7.97;;;28.80;30.20;;;;;;5074932;28;20069;-64
2023/04/11 03:48:29;;;;;;;49.70;7.20;;;28.70;31.30;;;;;;5071023;28;20084;-64
2023/04/11 03:50:56;;;;;;;34.60;7.13;;;28.70;31.00;;;;;;5068635;28;20068;-65
2023/04/11 03:53:22;;;;;;;35.63;7.38;;;28.70;31.50;;;;;;5067591;28;21265;-65
2023/04/11 03:55:51;;;;;;;45.47;6.80;;;28.70;31.30;;;;;;5068472;28;20145;-66
2023/04/11 03:58:17;;;;;;;31.35;6.35;;;28.70;31.30;;;;;;5075771;28;20069;-67
2023/04/11 04:00:45;;;;;;;33.45;6.88;;;28.70;31.90;;;;;;5075444;28;20079;-65
2023/04/11 04:03:12;;;;;;;28.63;7.40;;;28.60;32.10;;;;;;5077268;28;20066;-65
2023/04/11 04:05:41;;;;;;;46.38;7.95;;;28.50;32.30;;;;;;5072015;28;20088;-67
2023/04/11 04:08:08;;;;;;;46.20;8.20;;;28.40;32.90;;;;;;5066650;28;20082;-65
2023/04/11 04:10:34;;;;;;;42.28;7.68;;;28.40;33.40;;;;;;5065754;28;20098;-64
2023/04/11 04:13:03;;;;;;;42.28;8.30;;;28.30;34.10;;;;;;5068280;28;20087;-66
2023/04/11 04:15:29;;;;;;;54.13;8.52;;;28.20;34.40;;;;;;5070526;28;20739;-64
2023/04/11 04:17:56;;;;;;;49.83;8.77;;;28.10;34.70;;;;;;5069232;28;20062;-65
2023/04/11 04:20:22;;;;;;;44.05;7.70;;;28.00;35.10;;;;;;5071616;28;20073;-63
2023/04/11 04:22:48;;;;;;;31.23;8.60;;;28.00;35.50;;;;;;5072201;28;20157;-64
2023/04/11 04:25:18;;;;;;;38.88;8.13;;;27.80;35.40;;;;;;5071161;28;20077;-64
2023/04/11 04:27:45;;;;;;;34.42;7.65;;;27.80;37.20;;;;;;5072046;28;20438;-65
2023/04/11 04:30:14;;;;;;;30.55;8.88;;;27.80;37.20;;;;;;5072342;28;20108;-65
2023/04/11 04:32:44;;;;;;;39.58;8.32;;;27.70;38.00;;;;;;5074841;28;20087;-64
2023/04/11 04:35:15;;;;;;;41.47;8.25;;;27.60;37.70;;;;;;5068036;28;20066;-63
2023/04/11 04:37:44;;;;;;;31.75;6.85;;;27.60;37.90;;;;;;5075528;28;20061;-64
2023/04/11 04:40:14;;;;;;;24.60;6.95;;;27.50;38.40;;;;;;5073705;28;20132;-64
2023/04/11 04:42:42;;;;;;;26.88;5.95;;;27.50;38.80;;;;;;5070182;28;20079;-61
2023/04/11 04:45:10;;;;;;;17.83;5.60;;;27.40;39.40;;;;;;5078521;28;20078;-65
2023/04/11 04:47:37;;;;;;;18.02;5.53;;;27.40;39.70;;;;;;5071038;28;20095;-64
2023/04/11 04:50:04;;;;;;;28.60;5.25;;;27.40;40.10;;;;;;5074010;28;20088;-65
2023/04/11 04:52:30;;;;;;;21.90;5.07;;;27.40;40.50;;;;;;5078649;28;20403;-65
2023/04/11 04:54:57;;;;;;;22.63;6.07;;;27.40;40.70;;;;;;5074685;28;20147;-62
2023/04/11 04:57:25;;;;;;;13.55;4.40;;;27.80;41.00;;;;;;5069428;28;20080;-63
2023/04/11 04:59:52;;;;;;;10.50;3.75;;;28.10;40.30;;;;;;5077406;28;20529;-62
2023/04/11 05:02:20;;;;;;;21.10;4.70;;;28.30;39.90;;;;;;5069319;28;20437;-64
2023/04/11 05:04:50;;;;;;;20.27;4.47;;;28.50;39.70;;;;;;5071366;28;20074;-61
2023/04/11 05:07:17;;;;;;;20.70;5.63;;;28.60;39.60;;;;;;5070589;28;20065;-62
2023/04/11 05:09:43;;;;;;;14.52;5.90;;;28.60;39.30;;;;;;5070325;28;20131;-63
2023/04/11 05:12:10;;;;;;;16.67;5.53;;;28.60;39.00;;;;;;5070532;28;20060;-62
2023/04/11 05:14:36;;;;;;;18.80;4.90;;;28.60;39.00;;;;;;5070029;28;20071;-63
2023/04/11 05:17:02;;;;;;;14.85;5.00;;;28.80;38.70;;;;;;5064548;28;20100;-65
2023/04/11 05:19:29;;;;;;;10.88;4.03;;;28.60;38.70;;;;;;5070687;28;20164;-58
2023/04/11 05:21:55;;;;;;;15.25;4.93;;;28.50;38.30;;;;;;5065607;28;20535;-62
2023/04/11 05:24:21;;;;;;;13.32;4.93;;;28.50;38.00;;;;;;5077615;28;20434;-59
2023/04/11 05:26:48;;;;;;;9.15;4.18;;;28.50;37.70;;;;;;5067657;28;20071;-62
2023/04/11 05:29:15;;;;;;;13.02;4.30;;;28.40;37.60;;;;;;5071599;28;20686;-61
2023/04/11 05:31:41;;;;;;;11.15;3.70;;;28.40;37.40;;;;;;5074244;28;20544;-62
2023/04/11 05:34:07;;;;;;;16.65;4.28;;;28.40;37.20;;;;;;5069393;28;20065;-61
2023/04/11 05:36:35;;;;;;;13.13;6.05;;;28.20;37.80;;;;;;5075248;28;20077;-61
2023/04/11 05:39:02;;;;;;;12.75;4.32;;;28.20;37.00;;;;;;5071360;28;20553;-62
2023/04/11 05:41:29;;;;;;;10.13;4.03;;;28.10;36.90;;;;;;5068867;28;20077;-62
2023/04/11 05:43:55;;;;;;;14.77;6.63;;;28.20;36.90;;;;;;5067858;28;20080;-64
2023/04/11 05:46:21;;;;;;;24.33;8.40;;;28.20;36.70;;;;;;5071800;28;21480;-59
2023/04/11 05:48:48;;;;;;;13.63;5.28;;;28.10;36.50;;;;;;5069407;28;20160;-66
2023/04/11 05:51:14;;;;;;;11.57;3.97;;;28.00;36.40;;;;;;5070066;28;20667;-61
2023/04/11 05:53:41;;;;;;;15.77;4.88;;;28.00;36.30;;;;;;5068519;28;20060;-61
2023/04/11 05:56:08;;;;;;;16.77;5.18;;;28.00;36.30;;;;;;5068634;28;20071;-59
2023/04/11 05:58:36;;;;;;;9.10;4.20;;;27.90;36.10;;;;;;5068322;28;20057;-60
2023/04/11 06:01:02;;;;;;;9.80;3.25;;;27.90;35.80;;;;;;5068228;28;20550;-64
2023/04/11 06:03:29;;;;;;;8.68;3.40;;;27.70;35.50;;;;;;5072203;28;20456;-60
2023/04/11 06:05:55;;;;;;;9.23;3.15;;;27.70;35.40;;;;;;5078400;28;20087;-62
2023/04/11 06:08:22;;;;;;;9.27;3.35;;;27.70;35.40;;;;;;5073606;28;20166;-59
2023/04/11 06:10:48;;;;;;;9.52;2.85;;;27.70;35.10;;;;;;5072501;28;20135;-60
2023/04/11 06:13:15;;;;;;;11.02;3.42;;;27.60;35.10;;;;;;5067802;28;20154;-63
2023/04/11 06:15:41;;;;;;;8.90;3.00;;;27.60;34.90;;;;;;5068653;28;20580;-59
2023/04/11 06:18:07;;;;;;;8.30;3.00;;;27.50;34.90;;;;;;5072639;28;20157;-62
2023/04/11 06:20:34;;;;;;;14.95;3.88;;;27.50;34.60;;;;;;5068448;28;20073;-63
2023/04/11 06:23:00;;;;;;;8.82;3.03;;;27.50;34.50;;;;;;5066036;28;20588;-60
2023/04/11 06:25:27;;;;;;;11.50;3.05;;;27.40;33.90;;;;;;5070046;28;20079;-57
2023/04/11 06:27:53;;;;;;;10.68;2.97;;;27.40;33.80;;;;;;5070996;28;20079;-60
2023/04/11 06:30:19;;;;;;;5.97;2.63;;;27.30;33.60;;;;;;5070936;28;20087;-61
2023/04/11 06:32:46;;;;;;;9.50;2.70;;;27.40;33.60;;;;;;5067667;28;20078;-61
2023/04/11 06:35:12;;;;;;;9.45;2.65;;;27.30;33.70;;;;;;5067739;28;20086;-61
2023/04/11 06:37:41;;;;;;;6.97;2.42;;;27.30;33.80;;;;;;5067102;28;20131;-60
2023/04/11 06:40:08;;;;;;;6.57;2.55;;;27.30;33.80;;;;;;5067306;28;20079;-62
2023/04/11 06:42:34;;;;;;;7.20;2.30;;;27.20;33.70;;;;;;5069345;28;20471;-62
2023/04/11 06:45:01;;;;;;;12.25;2.78;;;27.10;33.80;;;;;;5069724;28;20078;-59
2023/04/11 06:47:27;;;;;;;8.45;2.58;;;27.00;33.70;;;;;;5069051;28;20081;-61
2023/04/11 06:49:54;;;;;;;5.50;2.10;;;27.00;33.90;;;;;;5070371;28;20098;-60
2023/04/11 06:52:20;;;;;;;9.80;2.13;;;27.00;33.70;;;;;;5067334;28;20081;-62
2023/04/11 06:54:47;;;;;;;5.97;2.13;;;27.00;33.70;;;;;;5075628;28;20149;-61
2023/04/11 06:57:14;;;;;;;7.45;2.35;;;27.00;33.70;;;;;;5070633;28;20159;-60
2023/04/11 06:59:40;;;;;;;7.78;2.42;;;27.00;33.60;;;;;;5071323;28;20067;-62
2023/04/11 07:02:07;;;;;;;6.78;2.30;;;27.00;33.50;;;;;;5084268;28;20074;-58
2023/04/11 07:04:33;;;;;;;11.88;2.20;;;26.90;33.50;;;;;;5074995;28;20373;-62
2023/04/11 07:06:59;;;;;;;15.57;2.22;;;26.90;33.50;;;;;;5079141;28;20072;-62
2023/04/11 07:09:26;;;;;;;12.02;2.55;;;26.90;33.80;;;;;;5082386;28;20178;-61
2023/04/11 07:11:52;;;;;;;11.20;2.40;;;26.90;34.00;;;;;;5074295;28;20068;-62
2023/04/11 07:14:18;;;;;;;6.20;2.30;;;26.80;34.50;;;;;;5080914;28;20493;-63
2023/04/11 07:16:45;;;;;;;9.15;2.20;;;26.70;34.60;;;;;;5077495;28;20115;-63
2023/04/11 07:19:11;;;;;;;12.88;2.38;;;26.60;34.70;;;;;;5077110;28;20066;-65
2023/04/11 07:21:38;;;;;;;5.90;1.70;;;26.50;34.50;;;;;;5072674;28;20150;-62
2023/04/11 07:24:05;;;;;;;5.85;1.90;;;26.50;34.30;;;;;;5050200;23;20139;-62
2023/04/11 07:26:34;;;;;;;5.38;2.17;;;26.50;34.20;;;;;;5030788;28;20545;-61
2023/04/11 07:29:00;;;;;;;5.10;2.08;;;26.50;34.10;;;;;;5034667;28;20092;-64
2023/04/11 07:31:27;;;;;;;6.25;2.00;;;26.40;33.70;;;;;;5034637;28;20502;-63
2023/04/11 07:33:53;;;;;;;6.25;1.88;;;26.40;33.60;;;;;;5038610;28;20060;-62
2023/04/11 07:36:19;;;;;;;3.15;1.60;;;26.40;33.40;;;;;;5035040;28;20076;-62
2023/04/11 07:38:46;;;;;;;8.43;1.70;;;26.50;33.50;;;;;;5043555;28;20088;-63
2023/04/11 07:41:12;;;;;;;11.38;1.77;;;26.50;33.10;;;;;;5053116;28;20079;-63
2023/04/11 07:43:39;;;;;;;10.75;1.80;;;26.50;33.00;;;;;;5051762;28;20079;-63
2023/04/11 07:46:06;;;;;;;4.25;1.52;;;26.50;33.00;;;;;;5050032;28;20072;-62
2023/04/11 07:48:32;;;;;;;2.35;1.40;;;26.40;32.70;;;;;;5051584;28;20149;-63
2023/04/11 07:50:58;;;;;;;7.35;1.55;;;26.50;32.90;;;;;;5062158;28;20065;-63
2023/04/11 07:53:25;;;;;;;5.88;1.67;;;26.40;32.80;;;;;;5056085;28;20087;-63
2023/04/11 07:55:52;;;;;;;3.95;1.60;;;26.50;32.90;;;;;;5050727;28;20077;-59
2023/04/11 07:58:18;;;;;;;4.18;1.60;;;26.50;33.10;;;;;;5051441;28;20543;-66
2023/04/11 08:00:45;;;;;;;4.35;1.55;;;26.40;32.80;;;;;;5053371;28;20121;-62
2023/04/11 08:03:12;;;;;;;5.38;1.52;;;26.40;32.70;;;;;;5054730;28;20124;-62
2023/04/11 08:05:38;;;;;;;4.15;1.50;;;26.40;32.70;;;;;;5054327;28;20092;-62
2023/04/11 08:08:05;;;;;;;2.95;1.20;;;26.40;32.50;;;;;;5051925;28;20082;-64
2023/04/11 08:10:32;;;;;;;3.15;1.60;;;26.40;32.60;;;;;;5051010;28;20227;-63
2023/04/11 08:12:59;;;;;;;3.70;1.20;;;26.40;32.60;;;;;;5058570;28;20089;-62
2023/04/11 08:15:26;;;;;;;4.85;1.38;;;26.40;32.50;;;;;;5055249;28;20064;-63
2023/04/11 08:17:56;;;;;;;5.70;1.40;;;26.40;32.60;;;;;;5058704;28;20074;-62
2023/04/11 08:20:23;;;;;;;3.42;1.30;;;26.40;32.50;;;;;;5056320;28;20117;-65
2023/04/11 08:22:50;;;;;;;4.18;1.25;;;26.40;32.50;;;;;;5054571;28;20492;-62
2023/04/11 08:25:21;;;;;;;3.10;1.00;;;26.30;32.50;;;;;;5053259;28;20094;-63
2023/04/11 08:27:49;;;;;;;2.72;1.15;;;26.40;32.60;;;;;;5058567;28;20063;-63
2023/04/11 08:30:16;;;;;;;2.28;1.20;;;26.40;32.70;;;;;;5051350;28;20081;-64
2023/04/11 08:32:42;;;;;;;1.40;1.00;;;26.30;32.80;;;;;;5051081;28;20068;-62
2023/04/11 08:35:09;;;;;;;2.78;1.10;;;26.30;32.60;;;;;;5051781;28;20134;-62
2023/04/11 08:37:36;;;;;;;1.55;1.00;;;26.30;33.10;;;;;;5055516;28;20082;-62
2023/04/11 08:40:05;;;;;;;6.65;1.17;;;26.20;33.30;;;;;;5052805;28;20099;-62
2023/04/11 08:42:32;;;;;;;3.20;1.00;;;26.20;33.20;;;;;;5051605;28;20076;-63
2023/04/11 08:45:02;;;;;;;4.35;1.30;;;26.10;33.60;;;;;;5052061;28;20087;-61
2023/04/11 08:47:29;;;;;;;6.18;1.30;;;26.00;33.40;;;;;;5053994;28;20155;-63
2023/04/11 08:49:55;;;;;;;4.60;1.23;;;26.00;33.50;;;;;;5052326;28;20091;-64
2023/04/11 08:52:22;;;;;;;3.30;1.30;;;26.00;33.50;;;;;;5053723;28;20103;-61
2023/04/11 08:54:53;;;;;;;2.63;1.17;;;26.00;33.70;;;;;;5053965;28;20061;-62
2023/04/11 08:57:30;;;;;;;4.97;1.40;;;25.90;33.90;;;;;;5054826;28;20582;-61
2023/04/11 09:00:09;;;;;;;3.83;0.93;;;25.80;34.10;;;;;;5053866;28;20082;-62
2023/04/11 09:02:59;;;;;;;2.08;1.13;;;25.80;34.50;;;;;;5054037;28;20072;-63
2023/04/11 09:05:46;;;;;;;4.47;1.30;;;25.70;34.90;;;;;;5052273;28;20531;-63
2023/04/11 09:08:16;;;;;;;3.80;0.90;;;25.60;34.90;;;;;;5053922;28;20122;-64
2023/04/11 09:10:44;;;;;;;3.35;1.52;;;25.60;35.80;;;;;;5053803;28;20088;-62
2023/04/11 09:13:27;;;;;;;3.53;1.25;;;25.50;35.30;;;;;;5053828;28;20075;-61
2023/04/11 09:16:13;;;;;;;2.20;1.20;;;25.40;35.40;;;;;;5051401;28;20064;-64
2023/04/11 09:18:45;;;;;;;6.15;1.35;;;25.40;36.10;;;;;;5051611;28;20076;-63
2023/04/11 09:21:16;;;;;;;2.58;1.30;;;25.40;35.40;;;;;;5054047;28;20066;-62
2023/04/11 09:23:43;;;;;;;5.00;1.40;;;25.40;35.40;;;;;;5051388;28;20138;-62
2023/04/11 09:26:11;;;;;;;2.80;1.30;;;25.40;35.50;;;;;;5052607;28;20074;-64
2023/04/11 09:28:52;;;;;;;6.13;1.60;;;25.30;35.60;;;;;;5050000;28;20081;-63
2023/04/11 09:31:19;;;;;;;4.47;1.60;;;25.30;35.90;;;;;;5053871;28;20072;-61
2023/04/11 09:33:53;;;;;;;8.43;1.52;;;25.20;36.60;;;;;;5053836;28;20071;-63
2023/04/11 09:36:22;;;;;;;5.22;1.50;;;25.10;36.20;;;;;;5052031;28;20075;-63
2023/04/11 09:38:50;;;;;;;4.80;1.40;;;25.10;36.40;;;;;;5052727;28;20091;-62
2023/04/11 09:41:30;;;;;;;3.17;1.15;;;25.00;37.00;;;;;;5055951;28;20439;-62
2023/04/11 09:43:56;;;;;;;5.45;1.75;;;25.00;36.20;;;;;;5052077;28;20071;-63
2023/04/11 09:46:24;;;;;;;3.50;1.30;;;24.90;36.00;;;;;;5050718;28;20123;-61
2023/04/11 09:48:53;;;;;;;8.45;1.30;;;24.90;36.00;;;;;;5048843;28;20099;-62
2023/04/11 09:51:20;;;;;;;4.47;1.30;;;24.80;36.20;;;;;;5053501;28;20189;-61
2023/04/11 09:53:47;;;;;;;3.42;1.38;;;24.70;36.40;;;;;;5050597;28;20074;-62
2023/04/11 09:56:14;;;;;;;4.82;1.40;;;24.70;36.60;;;;;;5053728;28;20491;-62
2023/04/11 09:58:41;;;;;;;2.38;1.50;;;24.70;36.90;;;;;;5049925;28;20060;-60
2023/04/11 10:01:09;;;;;;;6.32;1.50;;;24.60;37.10;;;;;;5053488;28;20084;-62
2023/04/11 10:03:37;;;;;;;8.70;1.98;;;24.50;37.40;;;;;;5051786;28;20075;-62
2023/04/11 10:06:15;;;;;;;3.78;1.40;;;24.40;37.50;;;;;;5049198;28;20132;-63
2023/04/11 10:08:42;;;;;;;7.40;1.60;;;24.40;38.00;;;;;;5051056;28;20075;-64
2023/04/11 10:11:13;;;;;;;4.72;1.45;;;24.30;38.00;;;;;;5050253;28;20069;-64
2023/04/11 10:13:47;;;;;;;4.85;1.13;;;24.30;38.40;;;;;;5048719;28;20516;-62
2023/04/11 10:16:21;;;;;;;5.97;1.45;;;24.20;38.50;;;;;;5048057;28;20095;-64
2023/04/11 10:18:50;;;;;;;6.45;1.75;;;24.10;38.80;;;;;;5057460;28;20064;-63
2023/04/11 10:21:28;;;;;;;7.80;1.45;;;24.00;39.10;;;;;;5048970;28;20096;-64
2023/04/11 10:24:14;;;;;;;7.53;2.35;;;23.90;39.10;;;;;;5052992;28;20195;-63
2023/04/11 10:27:02;;;;;;;4.20;1.45;;;23.80;40.20;;;;;;5054369;28;20605;-63
2023/04/11 10:29:31;;;;;;;9.20;1.65;;;23.60;41.60;;;;;;5050364;28;20624;-63
2023/04/11 10:32:10;;;;;;;4.85;1.55;;;23.60;42.00;;;;;;5054980;28;20535;-63
2023/04/11 10:34:49;;;;;;;7.22;1.50;;;23.50;41.60;;;;;;5051999;28;20075;-62
2023/04/11 10:37:17;;;;;;;5.97;1.52;;;23.40;41.40;;;;;;5056583;28;20554;-62
2023/04/11 10:39:52;;;;;;;6.90;2.35;;;23.30;41.00;;;;;;5057125;28;20455;-64
2023/04/11 10:42:45;;;;;;;5.50;1.48;;;23.30;41.50;;;;;;5053388;28;20090;-63
2023/04/11 10:45:26;;;;;;;9.52;2.05;;;23.20;41.50;;;;;;5051768;28;20155;-62
2023/04/11 10:48:06;;;;;;;9.10;1.90;;;23.10;41.80;;;;;;5061918;28;20075;-61
2023/04/11 10:50:40;;;;;;;8.73;2.17;;;23.10;42.10;;;;;;5055154;28;20179;-62
2023/04/11 10:53:13;;;;;;;7.45;1.55;;;23.00;41.60;;;;;;5056272;28;20104;-62
2023/04/11 10:55:50;;;;;;;5.05;1.83;;;23.00;42.90;;;;;;5054161;28;20069;-61
2023/04/11 10:58:20;;;;;;;6.90;1.80;;;22.90;42.50;;;;;;5051064;28;20094;-62
2023/04/11 11:00:53;;;;;;;9.82;1.83;;;22.90;42.10;;;;;;5051698;28;20091;-62
2023/04/11 11:03:21;;;;;;;4.63;1.48;;;22.80;41.70;;;;;;5055595;28;20072;-63
2023/04/11 11:05:59;;;;;;;9.35;1.90;;;22.80;41.40;;;;;;5054458;28;20075;-62
2023/04/11 11:08:33;;;;;;;5.53;1.75;;;22.80;41.20;;;;;;5051860;28;20159;-61
2023/04/11 11:11:01;;;;;;;10.63;1.98;;;22.80;41.00;;;;;;5058016;28;20075;-61
2023/04/11 11:13:44;;;;;;;3.55;1.40;;;22.70;41.00;;;;;;5054683;28;20427;-62
2023/04/11 11:16:16;;;;;;;6.93;1.67;;;22.70;41.70;;;;;;5052258;28;20108;-62
2023/04/11 11:18:53;;;;;;;6.93;1.73;;;22.70;41.20;;;;;;5050691;28;20072;-62
2023/04/11 11:21:24;;;;;;;5.63;1.38;;;22.80;41.70;;;;;;5050668;28;20072;-62
2023/04/11 11:24:00;;;;;;;1.95;1.10;;;22.70;41.70;;;;;;5051306;28;20108;-64
2023/04/11 11:26:40;;;;;;;3.22;1.45;;;22.60;41.00;;;;;;5052226;28;20072;-63
2023/04/11 11:29:07;;;;;;;6.00;1.58;;;22.60;40.90;;;;;;5053386;28;20497;-62
2023/04/11 11:31:44;;;;;;;4.10;1.38;;;22.60;41.20;;;;;;5056424;28;20555;-62
2023/04/11 11:34:12;;;;;;;3.72;1.30;;;22.60;42.80;;;;;;5061095;28;20064;-62
2023/04/11 11:36:45;;;;;;;3.63;1.33;;;22.60;42.20;;;;;;5056439;28;20068;-62
2023/04/11 11:39:12;;;;;;;4.60;1.20;;;22.50;41.90;;;;;;5055221;28;20093;-62
2023/04/11 11:41:40;;;;;;;5.20;1.40;;;22.50;41.40;;;;;;5055886;28;20074;-62
2023/04/11 11:44:19;;;;;;;7.93;1.73;;;22.50;41.60;;;;;;5053900;28;20076;-64
2023/04/11 11:47:11;;;;;;;7.78;1.67;;;22.40;41.50;;;;;;5056786;28;20072;-64
2023/04/11 11:49:47;;;;;;;7.25;1.48;;;22.40;41.50;;;;;;5055206;28;20088;-63
2023/04/11 11:52:32;;;;;;;4.97;1.60;;;22.30;42.00;;;;;;5059454;28;20722;-63
2023/04/11 11:55:00;;;;;;;7.05;1.55;;;22.30;42.80;;;;;;5056904;28;20141;-63
2023/04/11 11:57:26;;;;;;;3.55;1.30;;;22.20;42.60;;;;;;5052497;28;20118;-64
2023/04/11 11:59:54;;;;;;;5.28;1.67;;;22.10;42.80;;;;;;5055559;28;20563;-62
2023/04/11 12:02:24;;;;;;;6.35;1.95;;;22.10;43.00;;;;;;5050653;28;20079;-61
2023/04/11 12:05:01;;;;;;;6.57;1.60;;;22.10;43.10;;;;;;5053210;28;20455;-61
2023/04/11 12:07:33;;;;;;;10.45;1.95;;;22.00;43.10;;;;;;5056293;28;20485;-62
2023/04/11 12:10:12;;;;;;;7.72;2.05;;;22.00;44.10;;;;;;5051281;28;20179;-62
2023/04/11 12:12:41;;;;;;;8.10;1.73;;;22.00;44.00;;;;;;5053041;28;20068;-62
2023/04/11 12:15:16;;;;;;;7.10;2.15;;;21.90;44.20;;;;;;5049961;28;20084;-66
2023/04/11 12:17:47;;;;;;;11.05;2.90;;;21.80;43.80;;;;;;5050002;28;20109;-61
2023/04/11 12:20:14;;;;;;;9.55;2.78;;;21.80;44.50;;;;;;5055617;28;20559;-63
2023/04/11 12:22:41;;;;;;;13.85;2.70;;;21.70;44.70;;;;;;5053009;28;20108;-63
2023/04/11 12:25:09;;;;;;;12.82;3.28;;;21.70;44.60;;;;;;5061699;28;20071;-61
2023/04/11 12:27:37;;;;;;;19.65;4.03;;;21.70;45.10;;;;;;5056392;28;20544;-62
2023/04/11 12:30:04;;;;;;;11.50;3.88;;;21.60;45.70;;;;;;5051543;28;20076;-62
2023/04/11 12:32:34;;;;;;;15.43;4.05;;;21.50;47.00;;;;;;5051014;28;20106;-62
2023/04/11 12:35:01;;;;;;;17.85;4.70;;;21.50;45.80;;;;;;5052435;28;20076;-62
2023/04/11 12:37:28;;;;;;;19.38;4.65;;;21.50;45.80;;;;;;5048707;28;20188;-61
2023/04/11 12:39:55;;;;;;;17.27;5.03;;;21.40;45.80;;;;;;5055589;28;20554;-62
2023/04/11 12:42:22;;;;;;;20.77;5.53;;;21.30;45.30;;;;;;5050392;28;20092;-62
2023/04/11 12:44:49;;;;;;;16.83;5.93;;;21.20;46.40;;;;;;5054037;28;20068;-63
2023/04/11 12:47:16;;;;;;;20.67;5.80;;;21.20;46.00;;;;;;5055876;28;20566;-62
2023/04/11 12:49:42;;;;;;;21.05;6.15;;;21.20;46.50;;;;;;5053766;28;20096;-63